Portlethen, United Kingdom
Current Conditions -  °F | °C
As of 8:20 PM on Saturday 25 Oct 2014 (Local Time) from EGPD Reporting Station
Few Clouds Few Clouds  
Wind Chill: 50°   Ceiling: Unl
Heat Index: 50°   Visibility: 6mi
Dew Point: 43°   Wind: 14mph
Humidity: 76%   Direction: 200°SSW
Pressure: 29.53"   Gusts: NA
Location:  57.05°N, 2.13°W
Report Text: EGPD 251920Z 20012KT 9999 FEW041 10/06 Q1000 NOSIG
Loading
Personal Weather Stations






























Interactive Weather Map
Tropical Storm Tracking
New forecast layout! Learn more

10-Day Weather Forecast

Advertisements
Track Severe Weather on mobile